createdAt,value
2022-08-14T00:00:09.709Z,1.58
2022-08-14T00:02:38.378Z,2.25
2022-08-14T00:05:04.857Z,1.52
2022-08-14T00:07:30.386Z,1.63
2022-08-14T00:10:50.284Z,1.45
2022-08-14T00:12:48.031Z,1.33
2022-08-14T00:15:24.521Z,2.58
2022-08-14T00:17:53.310Z,1.38
2022-08-14T00:20:23.401Z,2.35
2022-08-14T00:22:57.409Z,1.00
2022-08-14T00:25:23.957Z,1.40
2022-08-14T00:27:49.509Z,1.30
2022-08-14T00:30:19.859Z,1.35
2022-08-14T00:32:52.688Z,1.38
2022-08-14T00:35:22.280Z,1.60
2022-08-14T00:38:07.767Z,1.88
2022-08-14T00:40:35.749Z,1.75
2022-08-14T00:43:01.301Z,1.40
2022-08-14T00:45:27.452Z,1.52
2022-08-14T00:47:57.530Z,1.30
2022-08-14T00:50:27.547Z,1.60
2022-08-14T00:52:55.029Z,1.75
2022-08-14T00:55:20.614Z,1.63
2022-08-14T00:58:07.191Z,1.73
2022-08-14T01:00:37.600Z,2.03
2022-08-14T01:03:14.690Z,1.38
2022-08-14T01:05:50.788Z,1.63
2022-08-14T01:08:52.234Z,1.52
2022-08-14T01:11:06.970Z,1.85
2022-08-14T01:13:42.828Z,1.95
2022-08-14T01:16:11.020Z,1.58
2022-08-14T01:19:02.283Z,1.75
2022-08-14T01:21:32.268Z,1.50
2022-08-14T01:24:00.885Z,2.17
2022-08-14T01:26:35.145Z,1.77
2022-08-14T01:29:05.133Z,1.48
2022-08-14T01:31:36.878Z,1.60
2022-08-14T01:35:17.790Z,1.60
2022-08-14T01:36:49.726Z,1.42
2022-08-14T01:39:16.486Z,1.60
2022-08-14T01:41:52.680Z,1.90
2022-08-14T01:44:31.179Z,1.70
2022-08-14T01:47:01.431Z,1.40
2022-08-14T01:49:33.459Z,1.75
2022-08-14T01:52:02.799Z,1.45
2022-08-14T01:54:38.246Z,1.48
2022-08-14T01:57:10.634Z,1.60
2022-08-14T01:59:38.117Z,1.38
2022-08-14T02:02:11.403Z,1.98
2022-08-14T02:04:55.223Z,1.25
2022-08-14T02:07:44.868Z,1.30
2022-08-14T02:10:08.223Z,3.33
2022-08-14T02:12:39.984Z,1.50
2022-08-14T02:15:08.458Z,1.27
2022-08-14T02:17:34.775Z,1.88
2022-08-14T02:20:00.275Z,1.80
2022-08-14T02:22:47.335Z,2.15
2022-08-14T02:25:13.860Z,1.60
2022-08-14T02:28:24.683Z,1.75
2022-08-14T02:30:31.326Z,2.08
2022-08-14T02:32:57.003Z,1.80
2022-08-14T02:35:26.534Z,1.75
2022-08-14T02:37:58.487Z,1.73
2022-08-14T02:40:32.494Z,2.22
2022-08-14T02:42:59.792Z,1.90
2022-08-14T02:45:33.222Z,1.92
2022-08-14T02:48:05.838Z,1.70
2022-08-14T02:50:39.298Z,2.00
2022-08-14T02:53:08.694Z,2.10
2022-08-14T02:55:34.699Z,1.60
2022-08-14T02:58:03.316Z,1.63
2022-08-14T03:00:31.208Z,1.60
2022-08-14T03:02:59.454Z,1.48
2022-08-14T03:05:29.326Z,1.55
2022-08-14T03:08:07.925Z,1.50
2022-08-14T03:10:34.155Z,1.95
2022-08-14T03:13:03.870Z,1.90
2022-08-14T03:15:32.232Z,1.67
2022-08-14T03:17:59.885Z,1.67
2022-08-14T03:20:27.141Z,1.52
2022-08-14T03:22:52.794Z,2.33
2022-08-14T03:25:21.257Z,3.25
2022-08-14T03:27:48.359Z,1.70
2022-08-14T03:30:24.823Z,1.60
2022-08-14T03:33:06.073Z,1.85
2022-08-14T03:35:39.857Z,1.88
2022-08-14T03:39:12.572Z,1.83
2022-08-14T03:41:10.109Z,1.38
2022-08-14T03:43:37.306Z,1.40
2022-08-14T03:46:04.849Z,2.85
2022-08-14T03:48:54.259Z,1.88
2022-08-14T03:51:20.427Z,1.90
2022-08-14T03:53:48.226Z,1.17
2022-08-14T03:56:21.214Z,1.83
2022-08-14T03:58:48.886Z,2.05
2022-08-14T04:01:18.561Z,1.30
2022-08-14T04:03:45.774Z,2.03
2022-08-14T04:06:13.427Z,1.50
2022-08-14T04:08:48.739Z,2.00
2022-08-14T04:11:15.330Z,2.28
2022-08-14T04:13:41.445Z,1.75
2022-08-14T04:16:10.264Z,1.73
2022-08-14T04:18:39.879Z,1.58
2022-08-14T04:21:09.205Z,1.60
2022-08-14T04:23:36.027Z,1.90
2022-08-14T04:26:04.149Z,1.80
2022-08-14T04:29:08.386Z,2.53
2022-08-14T04:31:17.047Z,1.40
2022-08-14T04:33:51.911Z,1.90
2022-08-14T04:36:18.659Z,2.08
2022-08-14T04:39:04.232Z,2.03
2022-08-14T04:41:50.448Z,1.85
2022-08-14T04:44:26.826Z,1.92
2022-08-14T04:47:22.183Z,1.50
2022-08-14T04:49:57.273Z,2.00
2022-08-14T04:52:24.925Z,1.67
2022-08-14T04:54:50.873Z,1.55
2022-08-14T04:57:16.355Z,2.13
2022-08-14T04:59:42.805Z,1.58
2022-08-14T05:02:08.526Z,1.60
2022-08-14T05:04:34.064Z,1.65
2022-08-14T05:07:05.414Z,1.80
2022-08-14T05:09:31.905Z,1.65
2022-08-14T05:13:01.005Z,1.67
2022-08-14T05:14:53.394Z,1.30
2022-08-14T05:17:24.582Z,2.15
2022-08-14T05:21:04.369Z,1.98
2022-08-14T05:22:44.778Z,1.83
2022-08-14T05:25:11.757Z,2.17
2022-08-14T05:27:40.537Z,1.95
2022-08-14T05:30:06.835Z,1.60
2022-08-14T05:32:33.956Z,2.40
2022-08-14T05:35:00.034Z,2.67
2022-08-14T05:37:26.464Z,1.95
2022-08-14T05:39:52.070Z,1.95
2022-08-14T05:42:22.420Z,2.92
2022-08-14T05:44:54.214Z,1.65
2022-08-14T05:47:21.304Z,1.77
2022-08-14T05:49:47.472Z,1.98
2022-08-14T05:52:17.966Z,2.10
2022-08-14T05:54:44.014Z,1.88
2022-08-14T05:57:09.918Z,2.05
2022-08-14T05:59:39.385Z,1.70
2022-08-14T06:02:06.133Z,1.42
2022-08-14T06:04:31.695Z,1.98
2022-08-14T06:06:57.418Z,1.83
2022-08-14T06:09:23.443Z,1.95
2022-08-14T06:11:49.716Z,1.98
2022-08-14T06:14:21.185Z,1.67
2022-08-14T06:16:49.456Z,1.98
2022-08-14T06:19:18.587Z,1.77
2022-08-14T06:21:44.121Z,2.20
2022-08-14T06:24:10.619Z,1.92
2022-08-14T06:26:44.500Z,1.83
2022-08-14T06:29:19.978Z,2.40
2022-08-14T06:31:46.885Z,2.40
2022-08-14T06:35:03.662Z,2.53
2022-08-14T06:37:05.817Z,1.85
2022-08-14T06:39:36.503Z,2.10
2022-08-14T06:42:05.852Z,1.75
2022-08-14T06:44:33.171Z,2.78
2022-08-14T06:47:01.721Z,2.95
2022-08-14T06:49:27.229Z,2.53
2022-08-14T06:51:53.845Z,2.13
2022-08-14T06:54:19.443Z,1.73
2022-08-14T06:56:54.100Z,2.05
2022-08-14T06:59:20.198Z,2.90
2022-08-14T07:02:13.248Z,2.20
2022-08-14T07:05:05.333Z,1.55
2022-08-14T07:07:39.573Z,2.03
2022-08-14T07:10:06.305Z,2.67
2022-08-14T07:12:56.631Z,1.95
2022-08-14T07:15:17.734Z,2.03
2022-08-14T07:17:44.184Z,3.35
2022-08-14T07:20:09.829Z,2.20
2022-08-14T07:22:56.183Z,2.05
2022-08-14T07:25:22.842Z,2.80
2022-08-14T07:27:58.023Z,1.98
2022-08-14T07:30:34.299Z,2.13
2022-08-14T07:33:00.740Z,2.53
2022-08-14T07:35:30.411Z,2.00
2022-08-14T07:38:16.636Z,2.20
2022-08-14T07:40:42.102Z,3.42
2022-08-14T07:43:14.792Z,2.30
2022-08-14T07:45:40.747Z,2.10
2022-08-14T07:48:06.719Z,2.38
2022-08-14T07:50:37.298Z,2.88
2022-08-14T07:53:02.957Z,2.58
2022-08-14T07:55:29.627Z,2.78
2022-08-14T07:57:55.949Z,1.85
2022-08-14T08:00:29.954Z,2.47
2022-08-14T08:02:58.490Z,2.28
2022-08-14T08:05:26.931Z,2.35
2022-08-14T08:07:53.044Z,2.40
2022-08-14T08:11:02.224Z,3.03
2022-08-14T08:15:52.991Z,2.95
2022-08-14T08:18:20.577Z,2.10
2022-08-14T08:20:53.974Z,3.15
2022-08-14T08:23:40.928Z,2.25
2022-08-14T08:26:14.595Z,2.45
2022-08-14T08:28:43.766Z,2.35
2022-08-14T08:31:11.780Z,2.45
2022-08-14T08:33:38.299Z,2.97
2022-08-14T08:36:07.981Z,3.05
2022-08-14T08:39:15.755Z,2.97
2022-08-14T08:41:19.447Z,2.78
2022-08-14T08:43:46.279Z,2.35
2022-08-14T08:46:21.652Z,2.70
2022-08-14T08:48:53.631Z,2.53
2022-08-14T08:51:33.292Z,2.67
2022-08-14T08:54:01.617Z,2.75
2022-08-14T08:56:44.864Z,2.92
2022-08-14T08:59:31.697Z,2.55
2022-08-14T09:02:03.972Z,2.95
2022-08-14T09:04:35.198Z,2.97
2022-08-14T09:07:10.947Z,2.83
2022-08-14T09:09:54.457Z,2.63
2022-08-14T09:12:25.096Z,3.13
2022-08-14T09:14:53.165Z,2.80
2022-08-14T09:17:19.284Z,2.75
2022-08-14T09:19:45.405Z,3.20
2022-08-14T09:22:35.332Z,3.08
2022-08-14T09:24:58.266Z,2.58
2022-08-14T09:27:25.301Z,2.65
2022-08-14T09:29:54.099Z,3.17
2022-08-14T09:32:59.057Z,2.95
2022-08-14T09:35:16.257Z,2.63
2022-08-14T09:38:02.286Z,2.38
2022-08-14T09:40:48.222Z,3.00
2022-08-14T09:43:22.851Z,2.47
2022-08-14T09:45:52.480Z,3.10
2022-08-14T09:48:20.147Z,2.72
2022-08-14T09:50:55.044Z,2.38
2022-08-14T09:54:18.471Z,2.95
2022-08-14T09:56:30.815Z,2.72
2022-08-14T09:58:58.276Z,2.58
2022-08-14T10:01:24.879Z,3.15
2022-08-14T10:03:52.506Z,2.50
2022-08-14T10:06:20.556Z,2.45
2022-08-14T10:08:50.991Z,2.60
2022-08-14T10:11:23.309Z,2.72
2022-08-14T10:13:53.964Z,3.05
2022-08-14T10:16:27.610Z,3.20
2022-08-14T10:19:04.412Z,3.53
2022-08-14T10:21:38.970Z,2.58
2022-08-14T10:24:39.286Z,3.60
2022-08-14T10:27:23.799Z,2.92
2022-08-14T10:29:50.264Z,2.80
2022-08-14T10:32:17.248Z,4.05
2022-08-14T10:34:45.233Z,2.80
2022-08-14T10:37:14.799Z,2.40
2022-08-14T10:39:51.148Z,2.80
2022-08-14T10:42:34.311Z,2.53
2022-08-14T10:45:00.272Z,2.92
2022-08-14T10:47:39.513Z,2.80
2022-08-14T10:50:35.182Z,3.72
2022-08-14T10:53:04.699Z,2.80
2022-08-14T10:55:31.361Z,2.85
2022-08-14T10:57:57.748Z,2.78
2022-08-14T11:00:30.445Z,2.80
2022-08-14T11:03:08.734Z,2.97
2022-08-14T11:05:40.245Z,2.70
2022-08-14T11:08:09.001Z,2.35
2022-08-14T11:10:40.860Z,2.85
2022-08-14T11:13:09.037Z,2.72
2022-08-14T11:15:37.098Z,2.90
2022-08-14T11:18:02.843Z,2.90
2022-08-14T11:20:31.366Z,2.78
2022-08-14T11:22:59.894Z,2.85
2022-08-14T11:25:41.252Z,2.55
2022-08-14T11:28:11.203Z,3.03
2022-08-14T11:30:50.207Z,2.92
2022-08-14T11:33:30.165Z,2.63
2022-08-14T11:35:59.560Z,3.38
2022-08-14T11:38:28.146Z,3.15
2022-08-14T11:40:55.801Z,2.92
2022-08-14T11:43:22.673Z,2.53
2022-08-14T11:45:55.416Z,4.63
2022-08-14T11:49:03.131Z,2.88
2022-08-14T11:51:11.895Z,2.80
2022-08-14T11:53:41.893Z,2.67
2022-08-14T11:56:07.940Z,2.85
2022-08-14T11:58:37.141Z,3.30
2022-08-14T12:01:06.090Z,4.10
2022-08-14T12:06:29.207Z,2.95
2022-08-14T12:09:01.474Z,2.83
2022-08-14T12:11:37.385Z,3.20
2022-08-14T12:14:13.438Z,2.17
2022-08-14T12:17:05.761Z,3.50
2022-08-14T12:19:54.056Z,3.33
2022-08-14T12:22:43.879Z,3.17
2022-08-14T12:25:11.809Z,3.25
2022-08-14T12:27:41.740Z,3.05
2022-08-14T12:30:39.455Z,2.10
2022-08-14T12:33:07.798Z,3.30
2022-08-14T12:35:35.099Z,3.38
2022-08-14T12:38:05.375Z,2.58
2022-08-14T12:40:31.105Z,2.78
2022-08-14T12:42:59.166Z,3.40
2022-08-14T12:45:32.353Z,2.92
2022-08-14T12:48:00.355Z,3.00
2022-08-14T12:50:35.025Z,2.88
2022-08-14T12:53:14.551Z,2.85
2022-08-14T12:56:17.580Z,2.50
2022-08-14T12:58:29.223Z,2.70
2022-08-14T13:01:16.871Z,3.03
2022-08-14T13:03:43.846Z,2.42
2022-08-14T13:06:10.957Z,2.65
2022-08-14T13:08:46.493Z,3.53
2022-08-14T13:11:19.219Z,3.10
2022-08-14T13:13:46.528Z,2.65
2022-08-14T13:16:20.626Z,2.88
2022-08-14T13:18:57.312Z,3.63
2022-08-14T13:21:25.434Z,2.17
2022-08-14T13:23:51.626Z,2.97
2022-08-14T13:26:17.477Z,3.47
2022-08-14T13:29:02.594Z,2.90
2022-08-14T13:31:31.499Z,3.00
2022-08-14T13:34:00.262Z,2.72
2022-08-14T13:36:51.695Z,2.72
2022-08-14T13:39:14.702Z,3.05
2022-08-14T13:41:40.322Z,2.55
2022-08-14T13:44:07.951Z,3.10
2022-08-14T13:46:40.006Z,3.13
2022-08-14T13:49:11.219Z,2.38
2022-08-14T13:51:39.016Z,2.90
2022-08-14T13:54:11.101Z,2.78
2022-08-14T13:56:38.263Z,2.95
2022-08-14T13:59:04.704Z,2.70
2022-08-14T14:01:42.664Z,2.85
2022-08-14T14:04:12.273Z,3.10
2022-08-14T14:06:46.124Z,2.50
2022-08-14T14:09:14.100Z,3.28
2022-08-14T14:11:40.837Z,2.97
2022-08-14T14:14:07.142Z,2.50
2022-08-14T14:16:52.597Z,2.45
2022-08-14T14:19:20.305Z,2.55
2022-08-14T14:21:49.654Z,3.28
2022-08-14T14:24:16.303Z,2.97
2022-08-14T14:26:46.120Z,3.00
2022-08-14T14:29:13.146Z,3.00
2022-08-14T14:31:40.660Z,3.20
2022-08-14T14:34:20.152Z,3.55
2022-08-14T14:36:55.533Z,3.10
2022-08-14T14:39:24.473Z,2.65
2022-08-14T14:41:56.476Z,2.70
2022-08-14T14:44:23.471Z,2.80
2022-08-14T14:46:49.806Z,2.90
2022-08-14T14:49:16.416Z,3.13
2022-08-14T14:51:51.562Z,2.67
2022-08-14T14:54:19.729Z,2.65
2022-08-14T14:56:58.996Z,2.58
2022-08-14T14:59:25.205Z,2.92
2022-08-14T15:01:52.998Z,3.35
2022-08-14T15:04:20.905Z,3.17
2022-08-14T15:06:47.684Z,2.65
2022-08-14T15:09:17.703Z,2.80
2022-08-14T15:11:44.445Z,3.42
2022-08-14T15:14:55.785Z,3.40
2022-08-14T15:16:59.041Z,2.70
2022-08-14T15:19:25.822Z,2.92
2022-08-14T15:21:52.175Z,2.60
2022-08-14T15:24:21.093Z,2.65
2022-08-14T15:26:52.325Z,2.88
2022-08-14T15:29:17.801Z,2.72
2022-08-14T15:31:43.287Z,3.40
2022-08-14T15:34:43.693Z,2.65
2022-08-14T15:36:55.697Z,3.05
2022-08-14T15:39:21.523Z,3.38
2022-08-14T15:41:48.086Z,2.90
2022-08-14T15:44:24.670Z,2.60
2022-08-14T15:46:52.046Z,2.78
2022-08-14T15:49:18.863Z,3.00
2022-08-14T15:51:44.969Z,2.80
2022-08-14T15:54:11.416Z,2.42
2022-08-14T15:56:42.850Z,2.90
2022-08-14T15:59:09.699Z,3.13
2022-08-14T16:01:53.651Z,2.75
2022-08-14T16:04:23.769Z,2.28
2022-08-14T16:06:55.620Z,2.83
2022-08-14T16:09:21.453Z,2.22
2022-08-14T16:11:53.702Z,2.75
2022-08-14T16:14:20.446Z,2.25
2022-08-14T16:16:51.598Z,2.72
2022-08-14T16:19:26.686Z,3.15
2022-08-14T16:22:01.769Z,2.70
2022-08-14T16:25:00.548Z,3.40
2022-08-14T16:27:33.723Z,2.35
2022-08-14T16:30:11.376Z,2.90
2022-08-14T16:32:55.382Z,2.80
2022-08-14T16:35:24.152Z,3.25
2022-08-14T16:37:51.889Z,2.85
2022-08-14T16:40:23.575Z,2.30
2022-08-14T16:43:04.767Z,2.63
2022-08-14T16:45:43.346Z,3.08
2022-08-14T16:50:55.845Z,3.10
2022-08-14T16:53:24.642Z,2.47
2022-08-14T16:56:17.043Z,2.70
2022-08-14T16:58:49.102Z,2.88
2022-08-14T17:01:24.540Z,2.53
2022-08-14T17:03:51.762Z,3.10
2022-08-14T17:06:36.207Z,2.83
2022-08-14T17:09:03.135Z,2.97
2022-08-14T17:11:30.769Z,2.90
2022-08-14T17:14:01.498Z,2.88
2022-08-14T17:16:29.568Z,2.75
2022-08-14T17:19:00.602Z,2.78
2022-08-14T17:21:31.906Z,2.67
2022-08-14T17:23:59.394Z,2.88
2022-08-14T17:26:44.533Z,3.20
2022-08-14T17:29:14.662Z,3.20
2022-08-14T17:31:58.796Z,2.85
2022-08-14T17:34:47.270Z,3.15
2022-08-14T17:37:29.093Z,3.08
2022-08-14T17:40:16.159Z,2.85
2022-08-14T17:42:53.683Z,2.83
2022-08-14T17:45:42.591Z,3.30
2022-08-14T17:49:15.719Z,2.55
2022-08-14T17:51:10.461Z,3.47
2022-08-14T17:53:38.321Z,2.90
2022-08-14T17:56:18.592Z,2.40
2022-08-14T17:58:44.576Z,2.42
2022-08-14T18:01:12.135Z,2.78
2022-08-14T18:03:50.748Z,2.63
2022-08-14T18:06:39.875Z,2.67
2022-08-14T18:09:08.497Z,2.95
2022-08-14T18:11:52.249Z,3.13
2022-08-14T18:14:32.685Z,2.72
2022-08-14T18:17:07.685Z,2.97
2022-08-14T18:19:35.797Z,2.88
2022-08-14T18:22:04.765Z,2.75
2022-08-14T18:24:31.815Z,2.70
2022-08-14T18:27:06.942Z,2.97
2022-08-14T18:29:39.513Z,3.13
2022-08-14T18:32:27.981Z,2.88
2022-08-14T18:35:02.781Z,2.90
2022-08-14T18:37:37.931Z,2.50
2022-08-14T18:40:22.462Z,2.95
2022-08-14T18:43:03.498Z,2.70
2022-08-14T18:45:31.703Z,3.25
2022-08-14T18:48:17.423Z,2.13
2022-08-14T18:50:46.289Z,2.20
2022-08-14T18:53:15.216Z,2.25
2022-08-14T18:55:53.223Z,2.65
2022-08-14T18:58:27.884Z,2.65
2022-08-14T19:00:58.908Z,2.40
2022-08-14T19:03:43.072Z,2.75
2022-08-14T19:08:36.431Z,2.65
2022-08-14T19:11:04.997Z,2.38
2022-08-14T19:13:48.453Z,2.35
2022-08-14T19:16:23.343Z,3.13
2022-08-14T19:19:00.425Z,2.80
2022-08-14T19:21:29.852Z,3.22
2022-08-14T19:24:26.777Z,2.83
2022-08-14T19:27:16.782Z,3.08
2022-08-14T19:29:47.999Z,2.72
2022-08-14T19:32:38.090Z,2.65
2022-08-14T19:35:16.599Z,2.80
2022-08-14T19:37:52.413Z,2.78
2022-08-14T19:40:39.078Z,2.78
2022-08-14T19:43:06.605Z,3.03
2022-08-14T19:45:33.851Z,2.40
2022-08-14T19:47:59.965Z,2.75
2022-08-14T19:50:38.750Z,3.17
2022-08-14T19:53:11.408Z,2.97
2022-08-14T19:55:38.543Z,3.05
2022-08-14T19:58:11.518Z,2.63
2022-08-14T20:00:52.298Z,2.80
2022-08-14T20:03:24.008Z,2.60
2022-08-14T20:05:59.617Z,2.50
2022-08-14T20:11:00.995Z,2.25
2022-08-14T20:12:01.135Z,2.72
2022-08-14T20:14:20.969Z,2.58
2022-08-14T20:16:50.472Z,2.28
2022-08-14T20:19:34.090Z,2.85
2022-08-14T20:22:36.651Z,2.67
2022-08-14T20:24:50.296Z,2.08
2022-08-14T20:27:33.295Z,2.58
2022-08-14T20:30:28.165Z,2.20
2022-08-14T20:32:48.788Z,2.72
2022-08-14T20:35:36.097Z,2.72
2022-08-14T20:38:31.980Z,2.85
2022-08-14T20:40:57.744Z,2.85
2022-08-14T20:43:44.534Z,2.22
2022-08-14T20:46:14.448Z,2.47
2022-08-14T20:48:55.648Z,2.90
2022-08-14T20:51:24.291Z,2.05
2022-08-14T20:53:58.163Z,2.70
2022-08-14T20:56:29.004Z,2.50
2022-08-14T20:58:56.259Z,2.22
2022-08-14T21:03:59.423Z,2.35
2022-08-14T21:06:27.110Z,2.60
2022-08-14T21:08:53.719Z,2.42
2022-08-14T21:11:22.184Z,2.80
2022-08-14T21:14:20.863Z,2.47
2022-08-14T21:16:39.326Z,2.50
2022-08-14T21:19:16.293Z,2.33
2022-08-14T21:21:44.505Z,2.88
2022-08-14T21:24:38.646Z,2.55
2022-08-14T21:27:13.218Z,2.63
2022-08-14T21:29:53.444Z,1.98
2022-08-14T21:32:33.640Z,2.63
2022-08-14T21:35:01.727Z,2.50
2022-08-14T21:37:33.465Z,3.00
2022-08-14T21:39:59.567Z,2.50
2022-08-14T21:42:27.832Z,2.47
2022-08-14T21:44:54.315Z,2.80
2022-08-14T21:47:19.799Z,2.53
2022-08-14T21:49:50.783Z,2.20
2022-08-14T21:52:52.225Z,2.53
2022-08-14T21:55:09.273Z,2.65
2022-08-14T21:57:56.776Z,2.38
2022-08-14T22:00:25.473Z,2.20
2022-08-14T22:03:02.043Z,3.00
2022-08-14T22:05:29.411Z,2.38
2022-08-14T22:07:55.887Z,3.08
2022-08-14T22:10:22.939Z,2.78
2022-08-14T22:13:00.890Z,2.15
2022-08-14T22:15:28.066Z,2.45
2022-08-14T22:17:54.485Z,2.33
2022-08-14T22:20:21.059Z,2.65
2022-08-14T22:22:46.538Z,3.08
2022-08-14T22:25:16.126Z,2.20
2022-08-14T22:27:56.157Z,2.55
2022-08-14T22:30:22.580Z,2.58
2022-08-14T22:32:58.008Z,2.30
2022-08-14T22:35:24.315Z,2.88
2022-08-14T22:38:32.601Z,2.67
2022-08-14T22:41:02.398Z,2.13
2022-08-14T22:43:23.363Z,2.22
2022-08-14T22:45:55.170Z,2.40
2022-08-14T22:48:21.475Z,2.22
2022-08-14T22:50:53.298Z,2.65
2022-08-14T22:53:19.609Z,2.55
2022-08-14T22:55:45.279Z,1.95
2022-08-14T22:58:17.330Z,1.98
2022-08-14T23:00:43.763Z,2.35
2022-08-14T23:03:17.342Z,2.38
2022-08-14T23:05:52.841Z,2.20
2022-08-14T23:08:57.652Z,2.72
2022-08-14T23:11:06.422Z,2.20
2022-08-14T23:13:32.106Z,2.33
2022-08-14T23:15:58.527Z,2.60
2022-08-14T23:18:24.563Z,2.45
2022-08-14T23:20:55.372Z,2.25
2022-08-14T23:23:22.617Z,1.92
2022-08-14T23:25:58.821Z,3.00
2022-08-14T23:28:34.394Z,2.30
2022-08-14T23:31:15.154Z,2.03
2022-08-14T23:33:59.677Z,2.88
2022-08-14T23:36:31.604Z,2.60
2022-08-14T23:39:07.154Z,2.53
2022-08-14T23:41:45.737Z,2.78
2022-08-14T23:44:19.537Z,2.58
2022-08-14T23:46:48.390Z,2.28
2022-08-14T23:49:14.947Z,2.72
2022-08-14T23:51:40.424Z,2.50
2022-08-14T23:54:05.936Z,2.70
2022-08-14T23:57:03.130Z,2.40
2022-08-14T23:59:30.218Z,2.30
